createdAt,value
2018-07-11T00:02:19.314Z,19.19
2018-07-11T00:04:50.019Z,19.16
2018-07-11T00:07:20.644Z,19.33
2018-07-11T00:10:06.877Z,19.19
2018-07-11T00:12:43.403Z,19.11
2018-07-11T00:15:13.944Z,19.09
2018-07-11T00:17:44.375Z,18.99
2018-07-11T00:20:14.992Z,18.98
2018-07-11T00:22:45.983Z,19.00
2018-07-11T00:25:16.691Z,18.93
2018-07-11T00:27:47.291Z,18.88
2018-07-11T00:30:18.152Z,18.80
2018-07-11T00:32:48.678Z,18.68
2018-07-11T00:35:19.309Z,18.69
2018-07-11T00:37:49.913Z,18.58
2018-07-11T00:40:20.628Z,18.51
2018-07-11T00:42:51.688Z,18.48
2018-07-11T00:45:22.334Z,18.52
2018-07-11T00:47:52.994Z,18.43
2018-07-11T00:50:23.483Z,18.37
2018-07-11T00:52:54.334Z,18.36
2018-07-11T00:55:25.173Z,18.30
2018-07-11T00:57:57.864Z,18.31
2018-07-11T01:00:28.392Z,18.24
2018-07-11T01:02:59.334Z,18.26
2018-07-11T01:05:29.939Z,18.23
2018-07-11T01:08:00.413Z,18.22
2018-07-11T01:10:31.026Z,18.13
2018-07-11T01:13:01.714Z,18.12
2018-07-11T01:15:32.195Z,18.04
2018-07-11T01:18:17.113Z,18.05
2018-07-11T01:20:47.674Z,17.93
2018-07-11T01:23:17.986Z,17.96
2018-07-11T01:25:48.588Z,17.94
2018-07-11T01:28:19.024Z,17.99
2018-07-11T01:30:49.871Z,17.95
2018-07-11T01:33:20.330Z,17.93
2018-07-11T01:35:50.937Z,18.06
2018-07-11T01:38:21.309Z,17.94
2018-07-11T01:40:52.072Z,17.84
2018-07-11T01:43:22.540Z,17.80
2018-07-11T01:45:53.113Z,17.77
2018-07-11T01:48:24.330Z,17.77
2018-07-11T01:50:55.074Z,17.75
2018-07-11T01:53:25.663Z,17.77
2018-07-11T01:55:56.591Z,17.84
2018-07-11T01:58:27.467Z,17.89
2018-07-11T02:00:58.414Z,17.82
2018-07-11T02:03:29.214Z,17.80
2018-07-11T02:05:59.851Z,17.67
2018-07-11T02:08:30.675Z,17.72
2018-07-11T02:11:01.456Z,17.74
2018-07-11T02:13:32.188Z,17.75
2018-07-11T02:16:03.161Z,17.71
2018-07-11T02:18:36.198Z,17.57
2018-07-11T02:21:08.082Z,17.49
2018-07-11T02:23:39.360Z,17.50
2018-07-11T02:26:10.248Z,17.46
2018-07-11T02:28:41.248Z,17.42
2018-07-11T02:31:12.080Z,17.43
2018-07-11T02:33:42.887Z,17.37
2018-07-11T02:36:13.404Z,17.34
2018-07-11T02:38:43.924Z,17.33
2018-07-11T02:41:14.803Z,17.44
2018-07-11T02:43:45.469Z,17.51
2018-07-11T02:46:16.244Z,17.46
2018-07-11T02:48:47.044Z,17.34
2018-07-11T02:51:17.749Z,17.29
2018-07-11T02:53:48.424Z,17.25
2018-07-11T02:56:19.915Z,17.17
2018-07-11T02:58:51.933Z,17.13
2018-07-11T03:01:22.419Z,17.21
2018-07-11T03:03:52.841Z,17.20
2018-07-11T03:06:23.318Z,17.23
2018-07-11T03:08:54.557Z,17.13
2018-07-11T03:11:25.313Z,17.12
2018-07-11T03:13:55.664Z,17.07
2018-07-11T03:16:26.146Z,17.01
2018-07-11T03:18:56.528Z,17.03
2018-07-11T03:21:27.076Z,17.04
2018-07-11T03:23:57.701Z,16.98
2018-07-11T03:26:28.154Z,17.03
2018-07-11T03:28:58.576Z,17.09
2018-07-11T03:31:30.253Z,17.40
2018-07-11T03:34:00.708Z,17.60
2018-07-11T03:36:31.323Z,17.95
2018-07-11T03:39:02.032Z,18.21
2018-07-11T03:41:32.910Z,18.53
2018-07-11T03:44:03.796Z,18.77
2018-07-11T03:46:34.490Z,18.90
2018-07-11T03:49:05.415Z,19.03
2018-07-11T03:51:36.087Z,19.24
2018-07-11T03:54:07.439Z,19.50
2018-07-11T03:56:37.976Z,19.74
2018-07-11T03:59:08.386Z,20.18
2018-07-11T04:01:39.025Z,20.49
2018-07-11T04:04:09.569Z,20.89
2018-07-11T04:06:39.953Z,21.13
2018-07-11T04:09:10.972Z,21.48
2018-07-11T04:11:41.674Z,21.65
2018-07-11T04:14:12.337Z,21.87
2018-07-11T04:16:42.765Z,22.11
2018-07-11T04:19:13.294Z,22.36
2018-07-11T04:21:43.659Z,22.74
2018-07-11T04:24:14.318Z,22.91
2018-07-11T04:26:44.921Z,23.13
2018-07-11T04:29:15.516Z,23.54
2018-07-11T04:31:46.215Z,24.07
2018-07-11T04:34:16.814Z,24.61
2018-07-11T04:36:47.744Z,24.63
2018-07-11T04:39:18.514Z,24.60
2018-07-11T04:41:49.141Z,24.55
2018-07-11T04:44:19.766Z,24.86
2018-07-11T04:46:50.688Z,24.58
2018-07-11T04:49:21.359Z,24.82
2018-07-11T04:51:52.671Z,25.44
2018-07-11T04:54:23.492Z,25.83
2018-07-11T04:56:54.349Z,25.82
2018-07-11T04:59:25.136Z,26.46
2018-07-11T05:01:55.812Z,26.66
2018-07-11T05:04:26.557Z,26.43
2018-07-11T05:06:57.054Z,26.51
2018-07-11T05:09:27.764Z,26.88
2018-07-11T05:11:58.297Z,27.16
2018-07-11T05:14:28.891Z,27.15
2018-07-11T05:16:59.414Z,26.59
2018-07-11T05:19:29.813Z,26.55
2018-07-11T05:22:00.425Z,26.74
2018-07-11T05:24:31.085Z,26.62
2018-07-11T05:27:01.577Z,27.07
2018-07-11T05:29:31.984Z,27.71
2018-07-11T05:32:02.517Z,27.77
2018-07-11T05:34:33.864Z,27.98
2018-07-11T05:37:05.270Z,28.27
2018-07-11T05:39:36.155Z,28.28
2018-07-11T05:42:06.671Z,28.56
2018-07-11T05:44:37.367Z,29.20
2018-07-11T05:47:08.405Z,28.47
2018-07-11T05:49:39.023Z,28.91
2018-07-11T05:52:09.485Z,28.88
2018-07-11T05:54:40.184Z,28.93
2018-07-11T05:57:10.596Z,29.09
2018-07-11T05:59:41.183Z,29.88
2018-07-11T06:02:11.740Z,29.66
2018-07-11T06:04:42.342Z,30.02
2018-07-11T06:07:12.818Z,29.65
2018-07-11T06:09:43.198Z,30.33
2018-07-11T06:12:13.578Z,30.01
2018-07-11T06:14:44.083Z,30.40
2018-07-11T06:17:14.653Z,30.75
2018-07-11T06:19:45.301Z,31.40
2018-07-11T06:22:15.764Z,30.96
2018-07-11T06:24:46.317Z,31.09
2018-07-11T06:27:17.156Z,30.66
2018-07-11T06:29:48.205Z,30.38
2018-07-11T06:32:18.646Z,30.94
2018-07-11T06:34:49.142Z,30.84
2018-07-11T06:37:19.576Z,31.75
2018-07-11T06:39:50.044Z,31.26
2018-07-11T06:42:20.582Z,31.55
2018-07-11T06:44:51.346Z,30.85
2018-07-11T06:47:22.189Z,31.37
2018-07-11T06:49:52.972Z,32.57
2018-07-11T06:52:23.365Z,32.01
2018-07-11T06:54:53.797Z,32.75
2018-07-11T06:57:24.410Z,32.03
2018-07-11T06:59:54.889Z,32.95
2018-07-11T07:02:25.351Z,32.47
2018-07-11T07:04:55.698Z,32.85
2018-07-11T07:07:26.405Z,32.88
2018-07-11T07:09:57.141Z,32.74
2018-07-11T07:12:27.811Z,32.36
2018-07-11T07:14:58.140Z,33.38
2018-07-11T07:17:28.564Z,34.17
2018-07-11T07:19:58.972Z,33.98
2018-07-11T07:22:29.426Z,33.19
2018-07-11T07:25:00.217Z,32.85
2018-07-11T07:27:30.723Z,33.69
2018-07-11T07:30:01.244Z,33.78
2018-07-11T07:32:31.861Z,33.81
2018-07-11T07:35:02.405Z,33.91
2018-07-11T07:37:32.833Z,32.78
2018-07-11T07:40:03.510Z,33.70
2018-07-11T07:42:34.026Z,34.17
2018-07-11T07:45:04.903Z,35.12
2018-07-11T07:47:40.351Z,34.02
2018-07-11T07:50:10.909Z,34.30
2018-07-11T07:52:42.229Z,34.64
2018-07-11T07:55:12.918Z,35.23
2018-07-11T07:57:43.901Z,33.70
2018-07-11T08:00:14.572Z,34.15
2018-07-11T08:02:45.964Z,35.80
2018-07-11T08:05:17.135Z,33.91
2018-07-11T08:07:47.759Z,34.12
2018-07-11T08:10:18.202Z,34.82
2018-07-11T08:12:48.686Z,34.92
2018-07-11T08:15:19.241Z,36.17
2018-07-11T08:17:49.645Z,36.79
2018-07-11T08:20:20.503Z,35.36
2018-07-11T08:23:32.046Z,35.77
2018-07-11T08:26:14.155Z,36.15
2018-07-11T08:30:00.054Z,35.32
2018-07-11T08:32:46.136Z,35.02
2018-07-11T08:35:32.590Z,36.06
2018-07-11T08:38:17.260Z,35.36
2018-07-11T08:41:00.939Z,35.49
2018-07-11T08:43:47.215Z,35.32
2018-07-11T08:46:29.946Z,35.73
2018-07-11T08:49:21.974Z,36.20
2018-07-11T08:52:17.181Z,35.70
2018-07-11T08:55:01.344Z,34.30
2018-07-11T08:57:42.949Z,34.91
2018-07-11T09:01:22.884Z,35.34
2018-07-11T09:04:04.479Z,36.12
2018-07-11T09:09:01.212Z,35.33
2018-07-11T09:12:45.275Z,35.22
2018-07-11T09:17:31.061Z,36.58
2018-07-11T09:20:12.547Z,36.58
2018-07-11T09:27:06.327Z,36.85
2018-07-11T09:29:37.025Z,37.93
2018-07-11T09:32:07.744Z,38.08
2018-07-11T09:34:38.073Z,37.05
2018-07-11T09:37:08.651Z,36.75
2018-07-11T09:39:39.264Z,36.29
2018-07-11T09:42:09.960Z,36.02
2018-07-11T09:44:40.633Z,38.12
2018-07-11T09:47:16.359Z,37.76
2018-07-11T09:49:47.228Z,36.38
2018-07-11T09:52:17.881Z,36.29
2018-07-11T09:54:48.527Z,36.12
2018-07-11T09:57:20.194Z,36.32
2018-07-11T09:59:51.165Z,36.98
2018-07-11T10:02:21.880Z,37.66
2018-07-11T10:04:53.278Z,37.72
2018-07-11T10:07:24.801Z,35.96
2018-07-11T10:09:55.568Z,36.25
2018-07-11T10:12:26.010Z,36.70
2018-07-11T10:14:56.932Z,37.04
2018-07-11T10:17:27.867Z,34.65
2018-07-11T10:19:58.384Z,36.52
2018-07-11T10:22:29.202Z,35.87
2018-07-11T10:25:00.095Z,36.22
2018-07-11T10:27:30.839Z,36.12
2018-07-11T10:30:01.540Z,36.40
2018-07-11T10:32:32.565Z,35.43
2018-07-11T10:35:03.335Z,36.47
2018-07-11T10:37:34.161Z,36.60
2018-07-11T10:40:04.846Z,36.48
2018-07-11T10:42:35.504Z,35.55
2018-07-11T10:45:06.718Z,35.83
2018-07-11T10:47:37.588Z,36.54
2018-07-11T10:50:08.382Z,35.43
2018-07-11T10:52:40.027Z,36.58
2018-07-11T10:55:10.640Z,36.04
2018-07-11T10:57:41.445Z,36.78
2018-07-11T11:00:12.050Z,37.53
2018-07-11T11:02:42.488Z,37.43
2018-07-11T11:05:13.139Z,36.91
2018-07-11T11:07:43.776Z,35.83
2018-07-11T11:10:14.226Z,35.61
2018-07-11T11:12:45.272Z,37.06
2018-07-11T11:15:15.872Z,37.01
2018-07-11T11:17:47.505Z,37.14
2018-07-11T11:20:18.116Z,36.57
2018-07-11T11:22:48.713Z,36.48
2018-07-11T11:25:20.096Z,36.36
2018-07-11T11:27:50.593Z,36.14
2018-07-11T11:30:21.412Z,35.40
2018-07-11T11:32:52.011Z,34.06
2018-07-11T11:35:22.842Z,33.55
2018-07-11T11:37:53.581Z,33.05
2018-07-11T11:40:25.129Z,32.30
2018-07-11T11:42:55.784Z,32.34
2018-07-11T11:45:26.520Z,32.12
2018-07-11T11:47:59.199Z,32.03
2018-07-11T11:50:30.324Z,31.70
2018-07-11T11:53:01.556Z,31.71
2018-07-11T11:55:31.944Z,31.51
2018-07-11T11:58:02.591Z,31.33
2018-07-11T12:00:32.994Z,31.08
2018-07-11T12:03:03.469Z,31.04
2018-07-11T12:05:33.994Z,30.93
2018-07-11T12:08:04.621Z,30.81
2018-07-11T12:10:35.149Z,30.87
2018-07-11T12:13:06.152Z,30.70
2018-07-11T12:15:36.830Z,30.89
2018-07-11T12:18:07.453Z,31.27
2018-07-11T12:20:38.058Z,31.58
2018-07-11T12:23:08.682Z,31.45
2018-07-11T12:25:48.972Z,31.51
2018-07-11T12:28:19.689Z,31.50
2018-07-11T12:30:50.234Z,31.65
2018-07-11T12:33:21.901Z,31.40
2018-07-11T12:35:52.467Z,30.72
2018-07-11T12:38:23.047Z,31.35
2018-07-11T12:40:53.967Z,31.26
2018-07-11T12:43:24.918Z,31.23
2018-07-11T12:45:56.440Z,31.11
2018-07-11T12:48:31.842Z,31.17
2018-07-11T12:51:02.628Z,31.19
2018-07-11T12:53:33.454Z,31.32
2018-07-11T12:56:04.071Z,31.38
2018-07-11T12:58:34.656Z,31.43
2018-07-11T13:01:05.295Z,31.50
2018-07-11T13:03:36.012Z,31.58
2018-07-11T13:06:07.458Z,31.40
2018-07-11T13:08:40.651Z,31.43
2018-07-11T13:11:11.136Z,31.27
2018-07-11T13:13:41.722Z,31.32
2018-07-11T13:16:12.349Z,31.33
2018-07-11T13:18:43.366Z,31.11
2018-07-11T13:21:14.118Z,31.03
2018-07-11T13:23:44.724Z,31.11
2018-07-11T13:26:15.433Z,31.24
2018-07-11T13:28:46.201Z,31.30
2018-07-11T13:31:18.871Z,31.21
2018-07-11T13:33:49.651Z,31.40
2018-07-11T13:36:20.456Z,31.66
2018-07-11T13:38:51.375Z,31.69
2018-07-11T13:41:22.934Z,31.78
2018-07-11T13:43:54.338Z,31.76
2018-07-11T13:46:25.013Z,31.33
2018-07-11T13:48:55.551Z,31.13
2018-07-11T13:51:26.179Z,31.30
2018-07-11T13:53:57.115Z,31.39
2018-07-11T13:56:27.656Z,31.57
2018-07-11T13:58:58.573Z,31.56
2018-07-11T14:01:29.352Z,31.40
2018-07-11T14:03:59.948Z,31.51
2018-07-11T14:06:30.729Z,31.63
2018-07-11T14:09:01.700Z,31.63
2018-07-11T14:11:32.507Z,31.43
2018-07-11T14:14:03.180Z,31.13
2018-07-11T14:16:34.774Z,30.73
2018-07-11T14:19:05.524Z,30.49
2018-07-11T14:21:35.913Z,30.60
2018-07-11T14:24:06.485Z,30.87
2018-07-11T14:26:37.291Z,31.11
2018-07-11T14:29:08.051Z,31.11
2018-07-11T14:31:38.857Z,31.06
2018-07-11T14:34:10.108Z,30.97
2018-07-11T14:36:40.607Z,30.94
2018-07-11T14:39:11.519Z,30.90
2018-07-11T14:41:41.978Z,30.96
2018-07-11T14:44:12.672Z,30.85
2018-07-11T14:46:43.565Z,30.92
2018-07-11T14:49:16.260Z,30.89
2018-07-11T14:51:46.945Z,30.92
2018-07-11T14:54:17.662Z,31.08
2018-07-11T14:56:48.800Z,31.29
2018-07-11T14:59:19.385Z,31.25
2018-07-11T15:01:50.108Z,31.26
2018-07-11T15:04:20.580Z,31.21
2018-07-11T15:06:51.423Z,30.96
2018-07-11T15:09:22.304Z,31.06
2018-07-11T15:11:52.955Z,30.92
2018-07-11T15:14:23.472Z,30.91
2018-07-11T15:16:54.032Z,30.93
2018-07-11T15:19:24.469Z,30.88
2018-07-11T15:21:54.978Z,30.91
2018-07-11T15:24:25.786Z,30.85
2018-07-11T15:26:57.067Z,30.86
2018-07-11T15:29:27.826Z,30.91
2018-07-11T15:32:01.158Z,30.91
2018-07-11T15:34:31.896Z,30.91
2018-07-11T15:37:02.557Z,30.84
2018-07-11T15:39:33.166Z,30.74
2018-07-11T15:42:06.210Z,30.76
2018-07-11T15:44:36.760Z,30.89
2018-07-11T15:47:08.095Z,30.89
2018-07-11T15:49:39.906Z,30.70
2018-07-11T15:52:11.410Z,30.48
2018-07-11T15:54:42.159Z,30.54
2018-07-11T15:57:13.915Z,30.65
2018-07-11T15:59:55.638Z,30.64
2018-07-11T16:02:26.554Z,30.58
2018-07-11T16:04:57.255Z,30.50
2018-07-11T16:07:30.289Z,30.51
2018-07-11T16:10:00.993Z,30.50
2018-07-11T16:12:31.674Z,30.40
2018-07-11T16:15:02.481Z,30.45
2018-07-11T16:17:33.036Z,30.48
2018-07-11T16:20:03.864Z,30.45
2018-07-11T16:22:34.775Z,30.49
2018-07-11T16:25:05.698Z,30.41
2018-07-11T16:27:36.540Z,30.31
2018-07-11T16:30:07.384Z,30.39
2018-07-11T16:32:37.980Z,30.32
2018-07-11T16:35:08.540Z,30.28
2018-07-11T16:37:39.048Z,30.26
2018-07-11T16:40:10.167Z,30.23
2018-07-11T16:42:40.961Z,30.13
2018-07-11T16:45:11.820Z,30.17
2018-07-11T16:47:42.629Z,30.12
2018-07-11T16:50:13.204Z,30.01
2018-07-11T16:52:43.904Z,29.93
2018-07-11T16:55:14.567Z,29.85
2018-07-11T16:57:47.691Z,29.85
2018-07-11T17:00:22.173Z,29.89
2018-07-11T17:03:07.804Z,29.76
2018-07-11T17:05:50.468Z,29.65
2018-07-11T17:08:30.508Z,29.59
2018-07-11T17:11:38.120Z,29.48
2018-07-11T17:14:08.876Z,29.37
2018-07-11T17:16:47.296Z,29.32
2018-07-11T17:19:29.895Z,29.19
2018-07-11T17:22:04.459Z,29.12
2018-07-11T17:24:39.817Z,29.11
2018-07-11T17:27:10.386Z,29.08
2018-07-11T17:29:42.796Z,29.04
2018-07-11T17:32:14.263Z,29.03
2018-07-11T17:34:44.925Z,28.88
2018-07-11T17:37:17.569Z,28.79
2018-07-11T17:39:54.332Z,28.60
2018-07-11T17:42:27.765Z,28.45
2018-07-11T17:45:11.805Z,28.33
2018-07-11T17:49:00.112Z,27.56
2018-07-11T17:52:15.242Z,28.11
2018-07-11T17:54:58.194Z,28.04
2018-07-11T17:58:35.963Z,27.98
2018-07-11T18:01:08.034Z,27.74
2018-07-11T18:03:44.870Z,27.63
2018-07-11T18:06:36.522Z,27.36
2018-07-11T18:09:10.208Z,27.14
2018-07-11T18:12:00.014Z,27.06
2018-07-11T18:15:04.069Z,27.02
2018-07-11T18:17:44.422Z,26.91
2018-07-11T18:22:47.536Z,26.89
2018-07-11T18:27:36.254Z,26.71
2018-07-11T18:30:27.672Z,26.48
2018-07-11T18:33:16.821Z,26.43
2018-07-11T18:35:53.823Z,26.37
2018-07-11T18:38:56.436Z,26.20
2018-07-11T18:41:39.162Z,26.19
2018-07-11T18:44:56.382Z,26.24
2018-07-11T18:47:46.802Z,26.22
2018-07-11T18:50:28.166Z,26.10
2018-07-11T18:53:04.621Z,26.02
2018-07-11T18:55:54.259Z,25.85
2018-07-11T18:58:37.504Z,25.79
2018-07-11T19:01:14.176Z,25.73
2018-07-11T19:04:22.093Z,25.61
2018-07-11T19:08:19.514Z,25.59
2018-07-11T19:10:57.532Z,25.59
2018-07-11T19:13:34.746Z,25.53
2018-07-11T19:16:19.796Z,25.54
2018-07-11T19:19:01.674Z,25.45
2018-07-11T19:22:08.756Z,25.36
2018-07-11T19:24:52.903Z,25.24
2018-07-11T19:27:49.149Z,25.12
2018-07-11T19:30:35.340Z,25.13
2018-07-11T19:34:20.098Z,25.07
2018-07-11T19:37:02.576Z,25.06
2018-07-11T19:41:51.747Z,24.96
2018-07-11T19:44:31.841Z,24.73
2018-07-11T19:47:13.221Z,24.65
2018-07-11T19:49:55.526Z,24.55
2018-07-11T19:52:36.703Z,24.46
2018-07-11T19:55:15.424Z,24.34
2018-07-11T19:57:46.083Z,24.31
2018-07-11T20:00:16.684Z,24.35
2018-07-11T20:02:47.302Z,24.40
2018-07-11T20:05:18.259Z,24.46
2018-07-11T20:07:48.962Z,24.46
2018-07-11T20:10:19.681Z,24.33
2018-07-11T20:12:51.124Z,24.32
2018-07-11T20:15:21.812Z,24.37
2018-07-11T20:17:52.472Z,24.36
2018-07-11T20:20:23.339Z,24.29
2018-07-11T20:22:53.828Z,24.19
2018-07-11T20:25:24.757Z,24.05
2018-07-11T20:27:55.307Z,23.95
2018-07-11T20:30:25.963Z,23.86
2018-07-11T20:32:56.484Z,23.76
2018-07-11T20:35:26.949Z,23.64
2018-07-11T20:37:57.877Z,23.53
2018-07-11T20:40:28.632Z,23.45
2018-07-11T20:42:59.339Z,23.48
2018-07-11T20:45:30.053Z,23.59
2018-07-11T20:48:00.746Z,23.57
2018-07-11T20:50:31.588Z,23.52
2018-07-11T20:53:02.385Z,23.47
2018-07-11T20:55:33.280Z,23.34
2018-07-11T20:59:13.584Z,23.24
2018-07-11T21:01:54.351Z,23.21
2018-07-11T21:06:38.345Z,23.11
2018-07-11T21:11:37.632Z,23.16
2018-07-11T21:15:27.707Z,23.00
2018-07-11T21:18:12.621Z,22.84
2018-07-11T21:20:43.172Z,22.69
2018-07-11T21:23:13.658Z,22.67
2018-07-11T21:25:44.927Z,22.74
2018-07-11T21:28:15.345Z,22.80
2018-07-11T21:30:45.777Z,22.80
2018-07-11T21:33:16.230Z,22.77
2018-07-11T21:35:46.522Z,22.75
2018-07-11T21:38:17.221Z,22.69
2018-07-11T21:40:47.597Z,22.64
2018-07-11T21:43:18.366Z,22.65
2018-07-11T21:45:51.311Z,22.72
2018-07-11T21:48:22.001Z,22.69
2018-07-11T21:50:52.538Z,22.59
2018-07-11T21:53:23.111Z,22.51
2018-07-11T21:55:53.426Z,22.44
2018-07-11T21:58:24.039Z,22.39
2018-07-11T22:00:56.727Z,22.24
2018-07-11T22:03:27.331Z,22.23
2018-07-11T22:05:58.144Z,22.23
2018-07-11T22:08:29.341Z,22.29
2018-07-11T22:11:00.195Z,22.22
2018-07-11T22:13:30.720Z,22.14
2018-07-11T22:16:01.282Z,22.04
2018-07-11T22:18:33.674Z,21.94
2018-07-11T22:21:03.262Z,21.87
2018-07-11T22:23:31.736Z,21.91
2018-07-11T22:26:00.220Z,21.93
2018-07-11T22:28:29.428Z,21.93
2018-07-11T22:30:58.104Z,21.90
2018-07-11T22:33:26.824Z,21.85
2018-07-11T22:35:55.515Z,21.80
2018-07-11T22:38:24.051Z,21.78
2018-07-11T22:40:53.982Z,21.71
2018-07-11T22:43:22.502Z,21.74
2018-07-11T22:45:51.046Z,21.75
2018-07-11T22:48:19.464Z,21.75
2018-07-11T22:50:47.988Z,21.69
2018-07-11T22:53:16.683Z,21.62
2018-07-11T22:55:45.361Z,21.57
2018-07-11T22:58:13.773Z,21.59
2018-07-11T23:00:42.220Z,21.63
2018-07-11T23:03:11.286Z,21.66
2018-07-11T23:05:39.697Z,21.55
2018-07-11T23:08:08.327Z,21.56
2018-07-11T23:10:36.946Z,21.52
2018-07-11T23:13:06.262Z,21.49
2018-07-11T23:15:34.840Z,21.47
2018-07-11T23:18:03.528Z,21.57
2018-07-11T23:20:32.263Z,21.45
2018-07-11T23:23:00.726Z,21.35
2018-07-11T23:25:29.306Z,21.24
2018-07-11T23:27:57.648Z,21.30
2018-07-11T23:30:26.189Z,21.27
2018-07-11T23:32:54.816Z,21.18
2018-07-11T23:35:23.400Z,21.19
2018-07-11T23:37:52.187Z,21.11
2018-07-11T23:40:20.871Z,21.05
2018-07-11T23:42:49.466Z,21.16
2018-07-11T23:45:17.934Z,21.09
2018-07-11T23:47:46.719Z,20.99
2018-07-11T23:50:15.308Z,21.07
2018-07-11T23:52:43.888Z,21.07
2018-07-11T23:55:12.593Z,21.11
2018-07-11T23:57:41.260Z,21.07
